Darrouzett, Texas
Current Conditions -  °F | °C
As of 3:53 AM on Monday 26 Jan 2015 (Local Time) from KGAG Reporting Station
Clear Clear  
Wind Chill: 19°   Ceiling: Unl
Heat Index: 27°   Visibility: 10mi
Dew Point: 25°   Wind: 8mph
Humidity: 92%   Direction: 250°WSW
Pressure: 30.15"   Gusts: NA
Location:  36.45°N, 100.32°W
Report Text: KGAG 260953Z AUTO 25007KT 10SM CLR M03/M04 A3015 RMK AO2 SLP211 T10281039
Loading
Personal Weather Stations






























Interactive Weather Map New forecast layout! Learn more

10-Day Weather Forecast

Advertisements
Track Severe Weather on mobile